Time;durP1;ratioP1;P1;durP2;ratioP2;P2;SDS_P1;SDS_P2;PMS_P1;PMS_P2;Temp;Humidity;BMP_temperature;BMP_pressure;BME280_temperature;BME280_humidity;BME280_pressure;Samples;Min_cycle;Max_cycle;Signal;HPM_P1;HPM_P2
2021/06/22 00:01:29;;;;;;;33.97;7.03;;;12.60;99.90;;;;;;5013236;28;20061;-77
2021/06/22 00:03:54;;;;;;;26.40;7.43;;;12.60;99.90;;;;;;5012532;28;20037;-77
2021/06/22 00:06:20;;;;;;;19.58;6.57;;;12.60;99.90;;;;;;5013268;28;20044;-77
2021/06/22 00:08:45;;;;;;;16.80;6.55;;;12.60;99.90;;;;;;5013387;28;20022;-77
2021/06/22 00:11:11;;;;;;;34.55;7.10;;;12.60;99.90;;;;;;5011833;28;20049;-77
2021/06/22 00:13:37;;;;;;;26.90;6.28;;;12.60;99.90;;;;;;5009670;28;20104;-77
2021/06/22 00:16:03;;;;;;;38.50;6.53;;;12.70;99.90;;;;;;5013202;28;20026;-77
2021/06/22 00:18:28;;;;;;;22.85;6.97;;;12.70;99.90;;;;;;5011866;28;20028;-77
2021/06/22 00:20:54;;;;;;;29.73;6.28;;;12.70;99.90;;;;;;5011897;28;20022;-77
2021/06/22 00:23:19;;;;;;;20.52;5.80;;;12.70;99.90;;;;;;5009528;28;20029;-77
2021/06/22 00:25:45;;;;;;;23.27;6.00;;;12.70;99.90;;;;;;5012964;28;20057;-77
2021/06/22 00:28:10;;;;;;;25.42;6.28;;;12.70;99.90;;;;;;5011713;28;20033;-77
2021/06/22 00:30:36;;;;;;;25.55;5.50;;;12.70;99.90;;;;;;5011674;28;20029;-77
2021/06/22 00:33:02;;;;;;;22.48;5.63;;;12.70;99.90;;;;;;5007840;28;20030;-77
2021/06/22 00:35:27;;;;;;;21.30;7.03;;;12.70;99.90;;;;;;4993203;28;20076;-77
2021/06/22 00:37:53;;;;;;;23.05;5.80;;;12.60;99.90;;;;;;4992032;28;20054;-77
2021/06/22 00:40:19;;;;;;;26.02;5.78;;;12.60;99.90;;;;;;5005109;28;20536;-77
2021/06/22 00:42:46;;;;;;;18.08;6.45;;;12.60;99.90;;;;;;5011177;28;20026;-77
2021/06/22 00:45:13;;;;;;;14.27;5.22;;;12.60;99.90;;;;;;5007263;28;20038;-77
2021/06/22 00:47:39;;;;;;;24.02;5.57;;;12.60;99.90;;;;;;4991719;28;20030;-77
2021/06/22 00:50:06;;;;;;;24.17;6.88;;;12.60;99.90;;;;;;4993048;28;20042;-77
2021/06/22 00:52:31;;;;;;;18.02;5.88;;;12.50;99.90;;;;;;4991395;28;20593;-77
2021/06/22 00:54:58;;;;;;;17.20;5.90;;;12.50;99.90;;;;;;4992031;28;20112;-77
2021/06/22 00:57:24;;;;;;;25.27;6.28;;;12.50;99.90;;;;;;4991269;28;20045;-77
2021/06/22 00:59:50;;;;;;;17.80;6.00;;;12.50;99.90;;;;;;4992815;28;20026;-77
2021/06/22 01:02:17;;;;;;;16.33;6.07;;;12.50;99.90;;;;;;4992399;28;20038;-77
2021/06/22 01:04:43;;;;;;;19.50;5.85;;;12.50;99.90;;;;;;4996318;28;20038;-77
2021/06/22 01:07:11;;;;;;;19.10;6.13;;;12.50;99.90;;;;;;5008999;28;20464;-77
2021/06/22 01:09:37;;;;;;;26.33;6.47;;;12.50;99.90;;;;;;4992815;28;20391;-77
2021/06/22 01:12:05;;;;;;;27.95;6.30;;;12.40;99.90;;;;;;4992316;28;20045;-77
2021/06/22 01:14:31;;;;;;;21.65;6.43;;;12.40;99.90;;;;;;4992837;28;20022;-77
2021/06/22 01:16:57;;;;;;;22.85;6.07;;;12.30;99.90;;;;;;4992596;28;20041;-77
2021/06/22 01:19:24;;;;;;;24.33;5.70;;;12.30;99.90;;;;;;4992687;28;20398;-77
2021/06/22 01:21:50;;;;;;;27.73;6.68;;;12.30;99.90;;;;;;4992238;28;20023;-77
2021/06/22 01:24:24;;;;;;;23.08;6.03;;;12.30;99.90;;;;;;5007681;28;20045;-77
2021/06/22 01:26:54;;;;;;;34.17;7.55;;;12.30;99.90;;;;;;4992484;28;20041;-77
2021/06/22 01:29:20;;;;;;;31.67;6.72;;;12.20;99.90;;;;;;5003603;28;20037;-77
2021/06/22 01:31:46;;;;;;;34.10;6.22;;;12.20;99.90;;;;;;4990909;28;20023;-77
2021/06/22 01:34:11;;;;;;;26.85;6.95;;;12.20;99.90;;;;;;5023917;28;20434;-77
2021/06/22 01:36:41;;;;;;;17.48;6.40;;;12.10;99.90;;;;;;5007452;28;20059;-77
2021/06/22 01:39:12;;;;;;;22.35;6.80;;;12.00;99.90;;;;;;5012040;28;20030;-77
2021/06/22 01:41:38;;;;;;;25.38;6.55;;;12.00;99.90;;;;;;5011659;28;20026;-77
2021/06/22 01:44:04;;;;;;;23.08;6.07;;;11.90;99.90;;;;;;5011937;28;20513;-77
2021/06/22 01:46:29;;;;;;;20.10;6.13;;;11.80;99.90;;;;;;5000225;28;20057;-77
2021/06/22 01:48:55;;;;;;;22.17;6.35;;;11.80;99.90;;;;;;4992376;28;20508;-77
2021/06/22 01:51:20;;;;;;;19.95;5.85;;;11.80;99.90;;;;;;4990797;28;20026;-76
2021/06/22 01:53:59;;;;;;;24.80;5.75;;;11.80;99.90;;;;;;4992136;28;20097;-77
2021/06/22 01:56:27;;;;;;;19.58;5.55;;;11.80;99.90;;;;;;5000204;28;20022;-77
2021/06/22 01:58:53;;;;;;;24.08;6.72;;;11.80;99.90;;;;;;5014535;28;20037;-77
2021/06/22 02:01:19;;;;;;;39.67;9.25;;;11.80;99.90;;;;;;5015481;28;20029;-77
2021/06/22 02:03:45;;;;;;;25.83;5.70;;;11.70;99.90;;;;;;5015624;28;20091;-77
2021/06/22 02:06:11;;;;;;;28.35;6.22;;;11.60;99.90;;;;;;5014078;28;20112;-77
2021/06/22 02:08:37;;;;;;;25.70;6.80;;;11.60;99.90;;;;;;5015553;28;20118;-77
2021/06/22 02:11:03;;;;;;;32.90;7.43;;;11.60;99.90;;;;;;5015272;28;20490;-77
2021/06/22 02:13:29;;;;;;;21.80;6.60;;;11.60;99.90;;;;;;5015196;28;20030;-77
2021/06/22 02:15:55;;;;;;;26.42;7.65;;;11.50;99.90;;;;;;5015392;28;20367;-77
2021/06/22 02:18:21;;;;;;;24.42;6.60;;;11.60;99.90;;;;;;4997246;28;20049;-77
2021/06/22 02:20:47;;;;;;;38.15;9.98;;;11.60;99.90;;;;;;4995794;28;20076;-77
2021/06/22 02:23:13;;;;;;;30.33;6.88;;;11.70;99.90;;;;;;4995485;28;20038;-77
2021/06/22 02:25:39;;;;;;;24.25;6.43;;;11.70;99.90;;;;;;4995531;28;20487;-77
2021/06/22 02:28:10;;;;;;;30.77;7.35;;;11.60;99.90;;;;;;5008706;28;20513;-76
2021/06/22 02:30:36;;;;;;;21.73;7.72;;;11.60;99.90;;;;;;5013947;28;20033;-77
2021/06/22 02:33:02;;;;;;;39.78;8.43;;;11.60;99.90;;;;;;5014792;28;20033;-77
2021/06/22 02:35:29;;;;;;;23.75;7.05;;;11.60;99.90;;;;;;5015099;28;20030;-77
2021/06/22 02:37:55;;;;;;;28.48;8.80;;;11.60;99.90;;;;;;5010194;28;20038;-77
2021/06/22 02:40:21;;;;;;;26.98;7.25;;;11.60;99.90;;;;;;4995353;28;20142;-77
2021/06/22 02:42:47;;;;;;;37.17;7.60;;;11.50;99.90;;;;;;4993807;28;20026;-77
2021/06/22 02:45:14;;;;;;;38.88;7.32;;;11.40;99.90;;;;;;5005351;28;20038;-77
2021/06/22 02:47:40;;;;;;;27.42;6.63;;;11.40;99.90;;;;;;5014839;28;20038;-77
2021/06/22 02:50:06;;;;;;;37.45;7.15;;;11.30;99.90;;;;;;5013554;28;20030;-77
2021/06/22 02:52:31;;;;;;;34.50;7.47;;;11.20;99.90;;;;;;5014274;28;20036;-77
2021/06/22 02:54:57;;;;;;;21.13;6.80;;;11.20;99.90;;;;;;5008928;28;20022;-77
2021/06/22 02:57:23;;;;;;;37.78;7.32;;;11.10;99.90;;;;;;4993902;28;20035;-77
2021/06/22 02:59:48;;;;;;;37.60;7.13;;;11.00;99.90;;;;;;4995099;28;20245;-77
2021/06/22 03:02:14;;;;;;;32.15;6.97;;;11.00;99.90;;;;;;4993488;28;20030;-77
2021/06/22 03:04:39;;;;;;;17.33;7.38;;;10.90;99.90;;;;;;4993700;28;20394;-77
2021/06/22 03:07:05;;;;;;;21.63;7.30;;;10.90;99.90;;;;;;5002193;28;20031;-77
2021/06/22 03:09:30;;;;;;;33.08;7.88;;;10.90;99.90;;;;;;4993267;28;20033;-77
2021/06/22 03:11:58;;;;;;;22.70;6.60;;;10.80;99.90;;;;;;4995194;28;20027;-77
2021/06/22 03:14:25;;;;;;;34.45;7.43;;;10.70;99.90;;;;;;4997361;28;20030;-77
2021/06/22 03:16:51;;;;;;;38.20;7.30;;;10.80;99.90;;;;;;5014353;28;20084;-77
2021/06/22 03:19:18;;;;;;;36.40;8.45;;;10.90;99.90;;;;;;5014279;28;20083;-77
2021/06/22 03:21:44;;;;;;;17.65;6.40;;;11.00;99.90;;;;;;5013905;28;20124;-77
2021/06/22 03:24:12;;;;;;;47.40;8.43;;;11.10;99.90;;;;;;5014117;28;20026;-77
2021/06/22 03:26:37;;;;;;;25.45;7.32;;;11.10;99.90;;;;;;4995795;28;20482;-77
2021/06/22 03:29:04;;;;;;;22.10;6.07;;;11.10;99.90;;;;;;4993299;28;20182;-78
2021/06/22 03:31:30;;;;;;;22.60;6.82;;;11.20;99.90;;;;;;4994430;28;20487;-78
2021/06/22 03:33:55;;;;;;;23.23;7.43;;;11.30;99.90;;;;;;4994393;28;20030;-78
2021/06/22 03:36:21;;;;;;;31.20;6.03;;;11.20;99.90;;;;;;4994892;28;20029;-78
2021/06/22 03:38:46;;;;;;;28.20;7.13;;;11.10;99.90;;;;;;4994321;28;20100;-78
2021/06/22 03:41:12;;;;;;;28.35;7.35;;;11.10;99.90;;;;;;4992932;28;20041;-78
2021/06/22 03:43:38;;;;;;;21.05;6.75;;;11.10;99.90;;;;;;4994153;28;20065;-78
2021/06/22 03:46:05;;;;;;;21.25;7.00;;;11.10;99.90;;;;;;5001722;28;20128;-78
2021/06/22 03:48:31;;;;;;;25.35;6.65;;;11.10;99.90;;;;;;5013696;28;20521;-78
2021/06/22 03:50:56;;;;;;;27.23;6.53;;;11.20;99.90;;;;;;5013570;28;20497;-78
2021/06/22 03:53:22;;;;;;;23.58;7.45;;;11.20;99.90;;;;;;5012073;28;20030;-78
2021/06/22 03:55:47;;;;;;;28.17;6.05;;;11.20;99.90;;;;;;5009201;28;20018;-78
2021/06/22 03:58:13;;;;;;;21.55;7.18;;;11.20;99.90;;;;;;4993987;28;20394;-78
2021/06/22 04:00:39;;;;;;;34.65;8.18;;;11.10;99.90;;;;;;4992733;28;20022;-78
2021/06/22 04:03:05;;;;;;;29.10;6.72;;;11.10;99.90;;;;;;4993645;28;20030;-78
2021/06/22 04:05:32;;;;;;;29.67;7.28;;;11.20;99.90;;;;;;4993691;28;20546;-78
2021/06/22 04:08:00;;;;;;;37.30;7.95;;;11.30;99.90;;;;;;5010996;28;20062;-78
2021/06/22 04:10:27;;;;;;;24.20;7.85;;;11.50;99.90;;;;;;5013311;28;20014;-78
2021/06/22 04:12:52;;;;;;;24.55;6.97;;;11.70;99.90;;;;;;5012654;28;20190;-78
2021/06/22 04:15:18;;;;;;;23.40;6.07;;;11.70;99.90;;;;;;5013331;28;20121;-77
2021/06/22 04:17:44;;;;;;;29.20;6.32;;;11.60;99.90;;;;;;5000003;28;20096;-78
2021/06/22 04:20:11;;;;;;;22.55;6.97;;;11.70;99.90;;;;;;4993470;28;20434;-78
2021/06/22 04:22:36;;;;;;;31.52;7.72;;;11.70;99.90;;;;;;4993220;28;20107;-78
2021/06/22 04:25:03;;;;;;;39.15;7.35;;;11.80;99.90;;;;;;4993448;28;20057;-78
2021/06/22 04:27:29;;;;;;;24.00;6.90;;;11.80;99.90;;;;;;4995604;28;20036;-77
2021/06/22 04:29:55;;;;;;;31.23;7.45;;;11.90;99.90;;;;;;4993386;28;20030;-78
2021/06/22 04:32:20;;;;;;;29.58;7.10;;;12.00;99.90;;;;;;4993082;28;20516;-78
2021/06/22 04:34:46;;;;;;;18.38;6.35;;;12.00;99.90;;;;;;4993250;28;20036;-78
2021/06/22 04:37:12;;;;;;;21.23;5.90;;;12.10;99.90;;;;;;4993391;28;20521;-78
2021/06/22 04:39:37;;;;;;;24.38;7.00;;;12.10;99.90;;;;;;4993261;28;20030;-78
2021/06/22 04:42:03;;;;;;;17.52;6.80;;;12.20;99.90;;;;;;4991613;28;20026;-78
2021/06/22 04:44:29;;;;;;;23.05;6.15;;;12.20;99.90;;;;;;4993179;28;20053;-78
2021/06/22 04:46:54;;;;;;;32.03;6.00;;;12.30;99.90;;;;;;4993033;28;20037;-78
2021/06/22 04:49:20;;;;;;;25.67;5.63;;;12.40;99.90;;;;;;5010086;28;20040;-78
2021/06/22 04:51:45;;;;;;;19.00;5.25;;;12.60;99.90;;;;;;5012200;28;20080;-78
2021/06/22 04:54:12;;;;;;;21.98;5.30;;;12.70;99.90;;;;;;5012633;28;20026;-78
2021/06/22 04:56:39;;;;;;;43.72;6.82;;;12.70;99.90;;;;;;5012627;28;20031;-78
2021/06/22 04:59:05;;;;;;;24.67;6.13;;;12.70;99.90;;;;;;4999859;28;20029;-77
2021/06/22 05:01:30;;;;;;;28.27;5.03;;;12.80;99.90;;;;;;4992732;28;20037;-78
2021/06/22 05:03:56;;;;;;;20.25;5.10;;;13.00;99.90;;;;;;4992675;28;20019;-78
2021/06/22 05:06:22;;;;;;;37.28;6.65;;;13.10;99.90;;;;;;4993302;28;20026;-78
2021/06/22 05:08:48;;;;;;;28.45;5.43;;;13.30;99.90;;;;;;4999427;28;20037;-78
2021/06/22 05:11:14;;;;;;;23.52;6.10;;;13.20;99.90;;;;;;5009769;28;20109;-78
2021/06/22 05:13:41;;;;;;;23.50;6.03;;;13.10;99.90;;;;;;5010605;28;20049;-78
2021/06/22 05:16:07;;;;;;;24.55;5.40;;;13.00;99.90;;;;;;5010986;28;20093;-77
2021/06/22 05:18:32;;;;;;;27.95;5.80;;;12.90;99.90;;;;;;5008348;28;20073;-78
2021/06/22 05:20:58;;;;;;;16.02;5.75;;;13.10;99.90;;;;;;4992517;28;20487;-77
2021/06/22 05:23:23;;;;;;;23.42;5.57;;;13.20;99.90;;;;;;4992278;28;20359;-78
2021/06/22 05:25:49;;;;;;;24.90;5.57;;;13.20;99.90;;;;;;4992535;28;20034;-78
2021/06/22 05:28:15;;;;;;;22.17;5.90;;;13.20;99.90;;;;;;4992495;28;20026;-78
2021/06/22 05:30:40;;;;;;;19.77;6.07;;;13.20;99.90;;;;;;5007776;28;20026;-78
2021/06/22 05:33:06;;;;;;;21.77;5.18;;;13.20;99.90;;;;;;5011875;28;20022;-78
2021/06/22 05:35:32;;;;;;;23.05;4.88;;;13.30;99.90;;;;;;5011938;28;20021;-78
2021/06/22 05:37:58;;;;;;;34.53;6.50;;;13.50;99.90;;;;;;5010494;28;20188;-78
2021/06/22 05:40:24;;;;;;;19.70;4.95;;;13.60;99.90;;;;;;5010799;28;20026;-78
2021/06/22 05:42:50;;;;;;;23.23;4.38;;;13.70;99.90;;;;;;5011775;28;20092;-78
2021/06/22 05:45:16;;;;;;;24.58;4.25;;;13.80;99.90;;;;;;5011949;28;20045;-78
2021/06/22 05:47:42;;;;;;;32.05;5.55;;;13.90;99.90;;;;;;5011806;28;20095;-78
2021/06/22 05:50:08;;;;;;;20.75;4.07;;;14.00;99.90;;;;;;5011599;28;20026;-78
2021/06/22 05:52:34;;;;;;;18.33;4.45;;;14.00;99.90;;;;;;5006896;28;20122;-78
2021/06/22 05:55:00;;;;;;;22.40;4.15;;;14.10;99.90;;;;;;4991049;28;20058;-78
2021/06/22 05:57:26;;;;;;;18.00;3.75;;;14.20;99.90;;;;;;4992498;28;20454;-77
2021/06/22 05:59:51;;;;;;;21.60;3.47;;;14.40;99.90;;;;;;4997327;28;20375;-77
2021/06/22 06:02:17;;;;;;;26.35;3.95;;;14.40;99.90;;;;;;5008203;28;20057;-78
2021/06/22 06:04:43;;;;;;;32.17;4.10;;;14.60;99.90;;;;;;5011576;28;20045;-77
2021/06/22 06:07:08;;;;;;;22.50;4.18;;;14.90;99.90;;;;;;5010221;28;20040;-77
2021/06/22 06:09:34;;;;;;;17.70;4.88;;;15.10;99.90;;;;;;5011612;28;20054;-77
2021/06/22 06:11:59;;;;;;;22.00;3.22;;;15.10;99.90;;;;;;5009952;28;20018;-78
2021/06/22 06:14:25;;;;;;;30.50;4.97;;;15.10;99.90;;;;;;5012196;28;20018;-78
2021/06/22 06:16:51;;;;;;;25.58;4.97;;;14.80;99.90;;;;;;5011575;28;20101;-78
2021/06/22 06:19:16;;;;;;;20.58;3.58;;;14.50;99.90;;;;;;5008629;28;20563;-77
2021/06/22 06:21:42;;;;;;;32.25;4.72;;;14.50;99.90;;;;;;4993331;28;20479;-77
2021/06/22 06:24:08;;;;;;;27.73;4.30;;;14.20;99.90;;;;;;4993225;28;20053;-78
2021/06/22 06:29:37;;;;;;;22.17;4.03;;;14.00;99.90;;;;;;5009751;28;20042;-77
2021/06/22 06:32:02;;;;;;;36.97;4.20;;;14.20;99.90;;;;;;5015495;28;20522;-78
2021/06/22 06:34:28;;;;;;;20.85;3.83;;;14.50;99.90;;;;;;5013672;28;20037;-78
2021/06/22 06:36:54;;;;;;;26.45;5.13;;;14.70;99.90;;;;;;4997993;28;20035;-78
2021/06/22 06:39:19;;;;;;;27.92;4.20;;;14.80;99.90;;;;;;4993013;28;20038;-78
2021/06/22 06:41:45;;;;;;;37.72;4.20;;;14.80;99.90;;;;;;5004841;28;20437;-78
2021/06/22 06:44:10;;;;;;;22.08;3.63;;;14.70;99.90;;;;;;5010669;28;20486;-78
2021/06/22 06:46:36;;;;;;;26.52;4.65;;;14.50;99.90;;;;;;5009834;28;20030;-78
2021/06/22 06:49:02;;;;;;;27.25;3.55;;;14.50;99.90;;;;;;5010779;28;20068;-78
2021/06/22 06:51:27;;;;;;;21.02;3.20;;;14.50;99.90;;;;;;5008871;28;20033;-78
2021/06/22 06:53:53;;;;;;;27.48;4.03;;;14.50;99.90;;;;;;5011744;28;20034;-78
2021/06/22 06:56:18;;;;;;;41.78;5.72;;;14.50;99.90;;;;;;5006480;28;20034;-78
2021/06/22 06:58:44;;;;;;;24.88;3.92;;;14.60;99.90;;;;;;5010559;28;20036;-78
2021/06/22 07:01:09;;;;;;;20.40;3.63;;;14.70;99.90;;;;;;5008682;28;20121;-78
2021/06/22 07:03:36;;;;;;;26.00;3.42;;;14.80;99.90;;;;;;5009813;28;20041;-78
2021/06/22 07:06:02;;;;;;;20.08;3.70;;;14.90;99.90;;;;;;5009901;28;20029;-78
2021/06/22 07:08:27;;;;;;;11.23;2.83;;;14.90;99.90;;;;;;5005569;28;20026;-78
2021/06/22 07:10:53;;;;;;;36.05;5.25;;;15.00;99.90;;;;;;5009759;28;20036;-78
2021/06/22 07:13:19;;;;;;;20.50;2.45;;;15.10;99.90;;;;;;5009210;28;20077;-78
2021/06/22 07:15:46;;;;;;;25.80;2.95;;;15.20;99.90;;;;;;5007599;28;20034;-78
2021/06/22 07:18:12;;;;;;;21.83;3.38;;;15.20;99.90;;;;;;5009583;28;20084;-78
2021/06/22 07:20:37;;;;;;;30.17;4.00;;;15.10;99.90;;;;;;5006431;28;20535;-77
2021/06/22 07:23:03;;;;;;;21.50;3.42;;;15.20;99.90;;;;;;5007199;28;20044;-80
2021/06/22 07:25:29;;;;;;;29.92;4.07;;;15.60;99.90;;;;;;5013327;28;20044;-78
2021/06/22 07:27:55;;;;;;;25.15;4.72;;;16.20;99.90;;;;;;5014003;28;20034;-78
2021/06/22 07:30:23;;;;;;;15.40;3.40;;;16.50;99.90;;;;;;5013277;28;20617;-78
2021/06/22 07:32:50;;;;;;;13.55;2.90;;;16.60;99.90;;;;;;5013654;28;20390;-78
2021/06/22 07:35:16;;;;;;;41.03;4.25;;;16.90;99.90;;;;;;5013861;28;20022;-78
2021/06/22 07:37:41;;;;;;;22.20;3.35;;;16.70;99.90;;;;;;5006027;28;20430;-78
2021/06/22 07:40:09;;;;;;;17.25;3.05;;;16.50;99.90;;;;;;5012824;28;20072;-79
2021/06/22 07:42:34;;;;;;;31.25;3.90;;;16.20;99.90;;;;;;4998704;28;20035;-79
2021/06/22 07:45:00;;;;;;;18.40;3.70;;;16.10;99.90;;;;;;4994208;28;20053;-78
2021/06/22 07:47:25;;;;;;;23.48;3.50;;;16.10;99.90;;;;;;4992483;28;20398;-80
2021/06/22 07:49:51;;;;;;;21.02;4.00;;;16.00;99.90;;;;;;4994044;28;20041;-81
2021/06/22 07:52:17;;;;;;;28.70;3.78;;;16.20;99.90;;;;;;4993870;28;20104;-80
2021/06/22 07:54:42;;;;;;;18.45;3.40;;;16.30;99.90;;;;;;4993659;28;20029;-80
2021/06/22 07:57:08;;;;;;;22.80;3.67;;;16.10;99.90;;;;;;4993969;28;20037;-80
2021/06/22 07:59:33;;;;;;;24.58;3.35;;;15.90;99.90;;;;;;4993906;28;20508;-80
2021/06/22 08:01:59;;;;;;;19.08;3.00;;;15.60;99.90;;;;;;4985631;28;20033;-80
2021/06/22 08:04:24;;;;;;;14.90;3.03;;;15.60;99.90;;;;;;5002799;28;20034;-83
2021/06/22 08:06:52;;;;;;;21.80;3.30;;;15.70;99.90;;;;;;5007854;28;20040;-83
2021/06/22 08:09:18;;;;;;;21.35;4.22;;;15.90;99.90;;;;;;5008837;28;20026;-80
2021/06/22 08:11:44;;;;;;;15.32;3.05;;;15.90;99.90;;;;;;5007356;28;20430;-79
2021/06/22 08:14:10;;;;;;;10.10;2.88;;;15.70;99.90;;;;;;5007975;28;20041;-80
2021/06/22 08:16:36;;;;;;;24.15;3.65;;;15.60;99.90;;;;;;5008845;28;20022;-78
2021/06/22 08:19:02;;;;;;;20.13;2.92;;;15.80;99.90;;;;;;5007538;28;20014;-79
2021/06/22 08:21:28;;;;;;;32.22;5.25;;;15.90;99.90;;;;;;5007159;28;20022;-78
2021/06/22 08:23:53;;;;;;;23.10;3.45;;;15.90;99.90;;;;;;5008330;28;20505;-78
2021/06/22 08:26:19;;;;;;;19.52;3.38;;;15.50;99.90;;;;;;4998302;28;20033;-79
2021/06/22 08:28:45;;;;;;;21.75;3.78;;;15.20;99.90;;;;;;5008909;28;20030;-78
2021/06/22 08:31:11;;;;;;;25.17;3.42;;;15.40;99.90;;;;;;5008782;28;20022;-78
2021/06/22 08:33:36;;;;;;;23.30;3.40;;;15.50;99.90;;;;;;5008014;28;20021;-79
2021/06/22 08:36:04;;;;;;;18.17;2.65;;;15.60;99.90;;;;;;5007263;28;20022;-79
2021/06/22 08:38:29;;;;;;;17.85;2.97;;;15.80;99.90;;;;;;5013523;28;20108;-79
2021/06/22 08:40:55;;;;;;;20.50;4.47;;;15.90;99.90;;;;;;5008653;28;20022;-78
2021/06/22 08:43:21;;;;;;;21.67;4.00;;;16.10;99.90;;;;;;5006864;28;20057;-78
2021/06/22 08:45:47;;;;;;;18.88;3.75;;;16.10;99.90;;;;;;5007069;28;20026;-78
2021/06/22 08:48:14;;;;;;;19.45;3.15;;;16.20;99.90;;;;;;5008084;28;20457;-78
2021/06/22 08:50:42;;;;;;;17.25;3.50;;;16.40;99.90;;;;;;5007914;28;20026;-80
2021/06/22 08:53:08;;;;;;;13.25;2.53;;;16.50;99.90;;;;;;5007776;28;20502;-79
2021/06/22 08:55:33;;;;;;;17.80;4.20;;;16.20;99.90;;;;;;5006289;28;20073;-79
2021/06/22 08:58:02;;;;;;;20.55;4.00;;;16.30;99.90;;;;;;5007660;28;20076;-79
2021/06/22 09:00:30;;;;;;;21.75;3.70;;;16.20;99.90;;;;;;5008964;28;20029;-78
2021/06/22 09:03:01;;;;;;;10.75;2.65;;;16.20;99.90;;;;;;5008779;28;20105;-78
2021/06/22 09:05:26;;;;;;;21.33;3.72;;;15.90;99.90;;;;;;5007562;28;20096;-79
2021/06/22 09:07:55;;;;;;;23.95;3.80;;;15.60;99.90;;;;;;5008702;28;20104;-80
2021/06/22 09:10:28;;;;;;;15.60;3.25;;;15.50;99.90;;;;;;5008588;28;20030;-78
2021/06/22 09:12:55;;;;;;;26.70;3.85;;;15.70;99.90;;;;;;5012076;28;20018;-79
2021/06/22 09:15:29;;;;;;;23.05;3.38;;;15.80;99.90;;;;;;5011452;28;20026;-79
2021/06/22 09:17:55;;;;;;;;;;;16.00;99.90;;;;;;5012597;28;20485;-79
2021/06/22 09:20:40;;;;;;;27.08;4.15;;;16.30;99.90;;;;;;5012252;28;19905;-78
2021/06/22 09:23:20;;;;;;;22.80;2.75;;;16.40;99.90;;;;;;5011862;28;20022;-77
2021/06/22 09:25:48;;;;;;;27.92;4.03;;;16.30;99.90;;;;;;5001572;28;20033;-78
2021/06/22 09:28:16;;;;;;;18.13;3.72;;;16.10;99.90;;;;;;4992331;28;20126;-78
2021/06/22 09:30:45;;;;;;;16.15;3.20;;;16.00;99.90;;;;;;4991254;28;20026;-78
2021/06/22 09:33:38;;;;;;;26.08;4.80;;;16.30;99.90;;;;;;4992160;28;20115;-78
2021/06/22 09:36:11;;;;;;;23.08;3.45;;;16.20;99.90;;;;;;5025599;28;20514;-78
2021/06/22 09:38:49;;;;;;;16.70;3.00;;;16.20;99.90;;;;;;5012090;28;20490;-79
2021/06/22 09:41:21;;;;;;;22.75;4.05;;;16.30;99.90;;;;;;5011786;28;20033;-78
2021/06/22 09:44:00;;;;;;;10.40;2.85;;;16.10;99.90;;;;;;5011965;28;20034;-78
2021/06/22 09:46:41;;;;;;;21.50;3.40;;;15.80;99.90;;;;;;5001605;28;20038;-78
2021/06/22 09:49:09;;;;;;;26.83;4.53;;;15.70;99.90;;;;;;4991054;28;20026;-78
2021/06/22 09:51:41;;;;;;;23.80;3.40;;;15.60;99.90;;;;;;4992002;28;20022;-78
2021/06/22 09:54:18;;;;;;;32.70;3.55;;;15.50;99.90;;;;;;4992196;28;20045;-78
2021/06/22 09:57:14;;;;;;;21.67;3.15;;;15.50;99.90;;;;;;4992029;28;20118;-78
2021/06/22 09:59:48;;;;;;;21.65;3.83;;;15.50;99.90;;;;;;4992089;28;20110;-79
2021/06/22 10:02:14;;;;;;;18.00;3.42;;;15.70;99.90;;;;;;4991676;28;20049;-78
2021/06/22 10:04:48;;;;;;;18.15;3.67;;;15.60;99.90;;;;;;4992098;28;20101;-78
2021/06/22 10:07:15;;;;;;;;;;;15.70;99.90;;;;;;5002463;28;20038;-78
2021/06/22 10:09:40;;;;;;;19.10;3.47;;;15.80;99.90;;;;;;4992171;28;19906;-78
2021/06/22 10:12:10;;;;;;;27.05;4.10;;;15.90;99.90;;;;;;4991363;28;20033;-78
2021/06/22 10:14:37;;;;;;;25.30;3.55;;;15.90;99.90;;;;;;4992100;28;20098;-78
2021/06/22 10:17:05;;;;;;;24.17;3.63;;;16.20;99.90;;;;;;4999179;28;20112;-78
2021/06/22 10:19:32;;;;;;;20.38;3.72;;;16.40;99.90;;;;;;5015435;28;20026;-79
2021/06/22 10:22:00;;;;;;;20.52;3.05;;;16.60;99.90;;;;;;5013947;28;20026;-78
2021/06/22 10:24:28;;;;;;;18.90;3.70;;;16.60;99.90;;;;;;5015170;28;20486;-78
2021/06/22 10:26:55;;;;;;;19.33;3.75;;;16.80;99.90;;;;;;5011810;28;20056;-79
2021/06/22 10:29:23;;;;;;;18.55;3.30;;;17.00;99.90;;;;;;4995646;28;20018;-79
2021/06/22 10:31:51;;;;;;;24.92;2.90;;;17.00;99.90;;;;;;4994050;28;20054;-79
2021/06/22 10:34:16;;;;;;;23.08;4.88;;;17.10;99.90;;;;;;4994381;28;20109;-78
2021/06/22 10:36:48;;;;;;;18.45;3.35;;;17.00;99.90;;;;;;4995604;28;20061;-78
2021/06/22 10:39:20;;;;;;;22.00;3.30;;;16.90;99.90;;;;;;4995865;28;20034;-79
2021/06/22 10:41:46;;;;;;;17.50;3.22;;;16.90;99.90;;;;;;4995212;28;20030;-79
2021/06/22 10:44:33;;;;;;;24.40;3.13;;;16.70;99.90;;;;;;4994091;28;20368;-78
2021/06/22 10:47:29;;;;;;;27.20;3.88;;;16.50;99.90;;;;;;4994023;28;20109;-78
2021/06/22 10:50:05;;;;;;;17.05;2.97;;;16.50;99.90;;;;;;4995313;28;20049;-78
2021/06/22 10:55:10;;;;;;;24.63;5.55;;;16.10;99.90;;;;;;4995435;28;20037;-78
2021/06/22 10:58:01;;;;;;;21.15;3.08;;;16.00;99.90;;;;;;4993925;28;20036;-79
2021/06/22 11:00:51;;;;;;;19.55;3.25;;;16.10;99.90;;;;;;4995123;28;20048;-78
2021/06/22 11:03:31;;;;;;;16.30;3.65;;;16.10;99.90;;;;;;4991500;28;20038;-79
2021/06/22 11:06:21;;;;;;;20.35;3.38;;;16.20;99.90;;;;;;4994900;28;20022;-78
2021/06/22 11:08:47;;;;;;;21.42;3.53;;;16.50;99.90;;;;;;4997006;28;20034;-79
2021/06/22 11:11:13;;;;;;;22.35;3.55;;;16.90;99.90;;;;;;4995458;28;20042;-78
2021/06/22 11:13:46;;;;;;;18.42;3.22;;;16.80;99.90;;;;;;5013820;28;20513;-79
2021/06/22 11:16:17;;;;;;;20.27;3.47;;;16.60;99.90;;;;;;5014180;28;20033;-78
2021/06/22 11:18:55;;;;;;;19.92;3.83;;;16.30;99.90;;;;;;5010248;28;20352;-78
2021/06/22 11:21:23;;;;;;;30.27;4.35;;;16.20;99.90;;;;;;4993285;28;20023;-78
2021/06/22 11:24:06;;;;;;;26.00;2.78;;;16.10;99.90;;;;;;4994666;28;20438;-79
2021/06/22 11:26:58;;;;;;;30.08;5.53;;;16.10;99.90;;;;;;4993249;28;20036;-78
2021/06/22 11:29:42;;;;;;;17.48;3.90;;;16.50;99.90;;;;;;4998052;28;20049;-78
2021/06/22 11:32:08;;;;;;;18.40;3.85;;;16.60;99.90;;;;;;5013926;28;20022;-78
2021/06/22 11:34:50;;;;;;;14.65;3.30;;;16.50;99.90;;;;;;5014091;28;20394;-79
2021/06/22 11:37:16;;;;;;;22.77;3.08;;;16.20;99.90;;;;;;5012482;28;20045;-78
2021/06/22 11:40:02;;;;;;;18.73;3.13;;;16.00;99.90;;;;;;5008994;28;20499;-79
2021/06/22 11:42:30;;;;;;;25.20;4.35;;;15.70;99.90;;;;;;4992783;28;20061;-78
2021/06/22 11:45:18;;;;;;;17.35;3.58;;;15.90;99.90;;;;;;4992914;28;20029;-78
2021/06/22 11:47:46;;;;;;;27.67;3.35;;;16.00;99.90;;;;;;4994309;28;20505;-79
2021/06/22 11:50:12;;;;;;;20.55;2.33;;;16.20;99.90;;;;;;4995204;28;20104;-79
2021/06/22 11:52:43;;;;;;;18.48;3.33;;;16.30;99.90;;;;;;4993847;28;20058;-79
2021/06/22 11:55:18;;;;;;;19.95;3.20;;;16.20;99.90;;;;;;4994046;28;20026;-79
2021/06/22 11:57:49;;;;;;;15.90;2.53;;;16.40;99.90;;;;;;5009116;28;20026;-79
2021/06/22 12:00:17;;;;;;;17.67;3.72;;;16.30;99.90;;;;;;4996563;28;20029;-79
2021/06/22 12:02:51;;;;;;;22.20;3.00;;;16.40;99.90;;;;;;5012046;28;20032;-78
2021/06/22 12:05:19;;;;;;;26.40;3.65;;;16.50;99.90;;;;;;5012095;28;20034;-78
2021/06/22 12:07:56;;;;;;;17.75;3.15;;;16.30;99.90;;;;;;5012178;28;20405;-79
2021/06/22 12:10:25;;;;;;;21.80;3.75;;;16.30;99.90;;;;;;5012057;28;20434;-79
2021/06/22 12:12:52;;;;;;;30.58;4.55;;;16.30;99.90;;;;;;4992203;28;20030;-78
2021/06/22 12:15:33;;;;;;;17.55;3.47;;;16.00;99.90;;;;;;4998894;28;20025;-78
2021/06/22 12:17:59;;;;;;;17.50;3.28;;;16.00;99.90;;;;;;5013188;28;20022;-79
2021/06/22 12:20:26;;;;;;;21.60;3.58;;;15.90;99.90;;;;;;5011994;28;20108;-78
2021/06/22 12:23:14;;;;;;;31.27;5.40;;;15.80;99.90;;;;;;5011427;28;20030;-78
2021/06/22 12:25:45;;;;;;;17.83;3.30;;;15.90;99.90;;;;;;5007881;28;20022;-78
2021/06/22 12:28:12;;;;;;;24.20;5.07;;;15.90;99.90;;;;;;4993413;28;20045;-79
2021/06/22 12:30:43;;;;;;;31.02;5.05;;;15.90;99.90;;;;;;4992162;28;20033;-78
2021/06/22 12:33:25;;;;;;;26.65;4.18;;;16.00;99.90;;;;;;4999599;28;20084;-78
2021/06/22 12:35:53;;;;;;;24.83;4.30;;;16.10;99.90;;;;;;5011732;28;20048;-78
2021/06/22 12:38:20;;;;;;;27.33;4.40;;;16.20;99.90;;;;;;5012899;28;20076;-79
2021/06/22 12:41:03;;;;;;;19.10;3.28;;;16.30;99.90;;;;;;5011957;28;20577;-78
2021/06/22 12:43:40;;;;;;;18.90;3.08;;;16.00;99.90;;;;;;5004884;28;20026;-78
2021/06/22 12:46:06;;;;;;;16.48;2.80;;;15.80;99.90;;;;;;4993182;28;20073;-79
2021/06/22 12:48:32;;;;;;;14.40;3.22;;;15.70;99.90;;;;;;4993096;28;20034;-79